sensor_id;sensor_type;location;lat;lon;timestamp;P1;durP1;ratioP1;P2;durP2;ratioP2
41077;SDS011;26823;42.662;23.352;2023-02-15T00:01:09;34.45;;;18.17;;
41077;SDS011;26823;42.662;23.352;2023-02-15T00:03:36;35.78;;;17.20;;
41077;SDS011;26823;42.662;23.352;2023-02-15T00:06:02;36.13;;;17.42;;
41077;SDS011;26823;42.662;23.352;2023-02-15T00:08:28;36.90;;;17.67;;
41077;SDS011;26823;42.662;23.352;2023-02-15T00:11:02;36.67;;;18.63;;
41077;SDS011;26823;42.662;23.352;2023-02-15T00:13:35;34.78;;;16.20;;
41077;SDS011;26823;42.662;23.352;2023-02-15T00:16:08;33.03;;;17.30;;
41077;SDS011;26823;42.662;23.352;2023-02-15T00:18:35;30.30;;;16.27;;
41077;SDS011;26823;42.662;23.352;2023-02-15T00:21:08;37.95;;;17.50;;
41077;SDS011;26823;42.662;23.352;2023-02-15T00:23:35;32.03;;;15.27;;
41077;SDS011;26823;42.662;23.352;2023-02-15T00:26:08;31.50;;;16.30;;
41077;SDS011;26823;42.662;23.352;2023-02-15T00:28:36;40.50;;;18.50;;
41077;SDS011;26823;42.662;23.352;2023-02-15T00:31:06;39.58;;;17.77;;
41077;SDS011;26823;42.662;23.352;2023-02-15T00:33:36;34.55;;;18.10;;
41077;SDS011;26823;42.662;23.352;2023-02-15T00:36:02;29.13;;;15.68;;
41077;SDS011;26823;42.662;23.352;2023-02-15T00:38:29;35.40;;;16.92;;
41077;SDS011;26823;42.662;23.352;2023-02-15T00:40:56;36.17;;;17.30;;
41077;SDS011;26823;42.662;23.352;2023-02-15T00:43:24;33.40;;;16.63;;
41077;SDS011;26823;42.662;23.352;2023-02-15T00:45:51;37.03;;;17.95;;
41077;SDS011;26823;42.662;23.352;2023-02-15T00:48:16;34.47;;;15.80;;
41077;SDS011;26823;42.662;23.352;2023-02-15T00:50:44;29.48;;;15.75;;
41077;SDS011;26823;42.662;23.352;2023-02-15T00:53:10;32.67;;;16.23;;
41077;SDS011;26823;42.662;23.352;2023-02-15T00:55:36;32.65;;;15.88;;
41077;SDS011;26823;42.662;23.352;2023-02-15T00:58:01;36.33;;;16.15;;
41077;SDS011;26823;42.662;23.352;2023-02-15T01:00:27;34.78;;;16.95;;
41077;SDS011;26823;42.662;23.352;2023-02-15T01:02:52;39.28;;;18.73;;
41077;SDS011;26823;42.662;23.352;2023-02-15T01:05:18;31.77;;;15.82;;
41077;SDS011;26823;42.662;23.352;2023-02-15T01:07:43;32.42;;;16.10;;
41077;SDS011;26823;42.662;23.352;2023-02-15T01:10:15;31.25;;;15.98;;
41077;SDS011;26823;42.662;23.352;2023-02-15T01:12:41;34.55;;;15.73;;
41077;SDS011;26823;42.662;23.352;2023-02-15T01:15:06;30.08;;;15.13;;
41077;SDS011;26823;42.662;23.352;2023-02-15T01:17:32;29.25;;;16.23;;
41077;SDS011;26823;42.662;23.352;2023-02-15T01:19:58;31.75;;;14.90;;
41077;SDS011;26823;42.662;23.352;2023-02-15T01:22:24;30.98;;;14.73;;
41077;SDS011;26823;42.662;23.352;2023-02-15T01:24:49;31.10;;;16.15;;
41077;SDS011;26823;42.662;23.352;2023-02-15T01:27:15;29.63;;;15.82;;
41077;SDS011;26823;42.662;23.352;2023-02-15T01:29:40;32.97;;;15.93;;
41077;SDS011;26823;42.662;23.352;2023-02-15T01:32:06;30.02;;;16.05;;
41077;SDS011;26823;42.662;23.352;2023-02-15T01:34:31;31.73;;;16.38;;
41077;SDS011;26823;42.662;23.352;2023-02-15T01:36:57;34.83;;;17.08;;
41077;SDS011;26823;42.662;23.352;2023-02-15T01:39:22;32.20;;;15.30;;
41077;SDS011;26823;42.662;23.352;2023-02-15T01:41:47;29.73;;;15.13;;
41077;SDS011;26823;42.662;23.352;2023-02-15T01:47:18;37.10;;;17.45;;
41077;SDS011;26823;42.662;23.352;2023-02-15T01:49:58;33.15;;;15.98;;
41077;SDS011;26823;42.662;23.352;2023-02-15T01:52:38;29.95;;;14.80;;
41077;SDS011;26823;42.662;23.352;2023-02-15T01:55:09;31.70;;;15.93;;
41077;SDS011;26823;42.662;23.352;2023-02-15T01:57:37;28.10;;;14.82;;
41077;SDS011;26823;42.662;23.352;2023-02-15T02:00:04;31.10;;;15.98;;
41077;SDS011;26823;42.662;23.352;2023-02-15T02:02:31;30.30;;;15.65;;
41077;SDS011;26823;42.662;23.352;2023-02-15T02:04:58;33.38;;;15.48;;
41077;SDS011;26823;42.662;23.352;2023-02-15T02:07:29;30.80;;;14.98;;
41077;SDS011;26823;42.662;23.352;2023-02-15T02:09:59;34.78;;;16.05;;
41077;SDS011;26823;42.662;23.352;2023-02-15T02:12:24;31.05;;;16.13;;
41077;SDS011;26823;42.662;23.352;2023-02-15T02:14:50;31.48;;;15.85;;
41077;SDS011;26823;42.662;23.352;2023-02-15T02:17:40;29.65;;;14.98;;
41077;SDS011;26823;42.662;23.352;2023-02-15T02:38:21;35.63;;;15.07;;
41077;SDS011;26823;42.662;23.352;2023-02-15T02:40:32;31.15;;;15.85;;
41077;SDS011;26823;42.662;23.352;2023-02-15T02:43:01;30.02;;;15.15;;
41077;SDS011;26823;42.662;23.352;2023-02-15T02:48:40;31.50;;;14.57;;
41077;SDS011;26823;42.662;23.352;2023-02-15T02:51:06;32.72;;;16.17;;
41077;SDS011;26823;42.662;23.352;2023-02-15T02:53:31;32.97;;;14.65;;
41077;SDS011;26823;42.662;23.352;2023-02-15T02:55:59;28.23;;;14.13;;
41077;SDS011;26823;42.662;23.352;2023-02-15T02:58:33;33.38;;;14.98;;
41077;SDS011;26823;42.662;23.352;2023-02-15T03:03:41;30.38;;;14.77;;
41077;SDS011;26823;42.662;23.352;2023-02-15T03:06:12;29.27;;;14.75;;
41077;SDS011;26823;42.662;23.352;2023-02-15T03:11:13;27.10;;;13.18;;
41077;SDS011;26823;42.662;23.352;2023-02-15T03:13:39;27.33;;;14.93;;
41077;SDS011;26823;42.662;23.352;2023-02-15T03:16:06;28.75;;;14.75;;
41077;SDS011;26823;42.662;23.352;2023-02-15T03:18:56;26.58;;;13.38;;
41077;SDS011;26823;42.662;23.352;2023-02-15T03:21:50;30.50;;;14.68;;
41077;SDS011;26823;42.662;23.352;2023-02-15T03:27:21;26.67;;;13.50;;
41077;SDS011;26823;42.662;23.352;2023-02-15T03:29:52;27.88;;;14.13;;
41077;SDS011;26823;42.662;23.352;2023-02-15T03:32:21;27.05;;;15.35;;
41077;SDS011;26823;42.662;23.352;2023-02-15T03:34:50;25.08;;;13.75;;
41077;SDS011;26823;42.662;23.352;2023-02-15T03:40:00;28.65;;;13.88;;
41077;SDS011;26823;42.662;23.352;2023-02-15T03:42:47;28.08;;;13.60;;
41077;SDS011;26823;42.662;23.352;2023-02-15T03:45:21;28.02;;;14.60;;
41077;SDS011;26823;42.662;23.352;2023-02-15T03:47:50;32.10;;;15.25;;
41077;SDS011;26823;42.662;23.352;2023-02-15T03:50:20;29.60;;;14.90;;
41077;SDS011;26823;42.662;23.352;2023-02-15T03:53:09;27.10;;;12.95;;
41077;SDS011;26823;42.662;23.352;2023-02-15T03:55:38;25.80;;;12.77;;
41077;SDS011;26823;42.662;23.352;2023-02-15T03:58:03;28.05;;;14.10;;
41077;SDS011;26823;42.662;23.352;2023-02-15T04:03:59;28.25;;;14.35;;
41077;SDS011;26823;42.662;23.352;2023-02-15T04:06:32;27.23;;;13.65;;
41077;SDS011;26823;42.662;23.352;2023-02-15T04:08:57;27.23;;;13.55;;
41077;SDS011;26823;42.662;23.352;2023-02-15T04:11:41;28.02;;;14.65;;
41077;SDS011;26823;42.662;23.352;2023-02-15T04:14:06;25.02;;;13.32;;
41077;SDS011;26823;42.662;23.352;2023-02-15T04:16:51;27.50;;;13.00;;
41077;SDS011;26823;42.662;23.352;2023-02-15T04:19:16;27.83;;;12.75;;
41077;SDS011;26823;42.662;23.352;2023-02-15T04:22:00;23.27;;;12.53;;
41077;SDS011;26823;42.662;23.352;2023-02-15T04:24:44;24.52;;;12.65;;
41077;SDS011;26823;42.662;23.352;2023-02-15T04:27:28;23.08;;;13.60;;
41077;SDS011;26823;42.662;23.352;2023-02-15T04:29:53;28.98;;;14.10;;
41077;SDS011;26823;42.662;23.352;2023-02-15T04:32:18;27.42;;;13.68;;
41077;SDS011;26823;42.662;23.352;2023-02-15T04:34:44;26.23;;;14.23;;
41077;SDS011;26823;42.662;23.352;2023-02-15T04:37:09;30.42;;;15.00;;
41077;SDS011;26823;42.662;23.352;2023-02-15T04:39:35;27.00;;;13.88;;
41077;SDS011;26823;42.662;23.352;2023-02-15T04:42:00;27.48;;;14.70;;
41077;SDS011;26823;42.662;23.352;2023-02-15T04:44:26;26.80;;;14.43;;
41077;SDS011;26823;42.662;23.352;2023-02-15T04:46:51;27.45;;;14.98;;
41077;SDS011;26823;42.662;23.352;2023-02-15T04:49:17;26.33;;;15.05;;
41077;SDS011;26823;42.662;23.352;2023-02-15T04:51:42;27.17;;;14.15;;
41077;SDS011;26823;42.662;23.352;2023-02-15T04:54:07;33.22;;;15.23;;
41077;SDS011;26823;42.662;23.352;2023-02-15T04:56:33;28.05;;;15.02;;
41077;SDS011;26823;42.662;23.352;2023-02-15T04:58:59;31.25;;;15.73;;
41077;SDS011;26823;42.662;23.352;2023-02-15T05:01:25;27.48;;;14.35;;
41077;SDS011;26823;42.662;23.352;2023-02-15T05:03:50;27.80;;;14.75;;
41077;SDS011;26823;42.662;23.352;2023-02-15T05:06:16;28.10;;;14.52;;
41077;SDS011;26823;42.662;23.352;2023-02-15T05:08:41;29.05;;;14.82;;
41077;SDS011;26823;42.662;23.352;2023-02-15T05:11:07;28.65;;;14.10;;
41077;SDS011;26823;42.662;23.352;2023-02-15T05:13:32;30.13;;;15.80;;
41077;SDS011;26823;42.662;23.352;2023-02-15T05:15:57;28.48;;;15.07;;
41077;SDS011;26823;42.662;23.352;2023-02-15T05:18:23;29.88;;;14.02;;
41077;SDS011;26823;42.662;23.352;2023-02-15T05:20:48;27.77;;;15.25;;
41077;SDS011;26823;42.662;23.352;2023-02-15T05:23:14;26.20;;;13.98;;
41077;SDS011;26823;42.662;23.352;2023-02-15T05:25:39;27.48;;;14.27;;
41077;SDS011;26823;42.662;23.352;2023-02-15T05:28:24;21.35;;;10.45;;
41077;SDS011;26823;42.662;23.352;2023-02-15T05:33:41;25.33;;;14.45;;
41077;SDS011;26823;42.662;23.352;2023-02-15T05:36:07;29.30;;;14.75;;
41077;SDS011;26823;42.662;23.352;2023-02-15T05:38:33;28.08;;;13.23;;
41077;SDS011;26823;42.662;23.352;2023-02-15T05:40:59;28.13;;;14.05;;
41077;SDS011;26823;42.662;23.352;2023-02-15T05:43:25;26.63;;;13.90;;
41077;SDS011;26823;42.662;23.352;2023-02-15T05:45:52;26.95;;;13.15;;
41077;SDS011;26823;42.662;23.352;2023-02-15T05:48:19;30.15;;;15.13;;
41077;SDS011;26823;42.662;23.352;2023-02-15T05:50:46;31.85;;;13.23;;
41077;SDS011;26823;42.662;23.352;2023-02-15T05:53:11;29.80;;;15.07;;
41077;SDS011;26823;42.662;23.352;2023-02-15T05:55:38;27.33;;;13.23;;
41077;SDS011;26823;42.662;23.352;2023-02-15T05:58:04;24.30;;;13.25;;
41077;SDS011;26823;42.662;23.352;2023-02-15T06:00:30;26.88;;;14.10;;
41077;SDS011;26823;42.662;23.352;2023-02-15T06:02:56;27.38;;;12.70;;
41077;SDS011;26823;42.662;23.352;2023-02-15T06:05:22;25.63;;;13.82;;
41077;SDS011;26823;42.662;23.352;2023-02-15T06:07:47;27.77;;;14.35;;
41077;SDS011;26823;42.662;23.352;2023-02-15T06:10:13;32.65;;;15.02;;
41077;SDS011;26823;42.662;23.352;2023-02-15T06:12:38;22.73;;;14.00;;
41077;SDS011;26823;42.662;23.352;2023-02-15T06:15:04;25.30;;;13.23;;
41077;SDS011;26823;42.662;23.352;2023-02-15T06:17:29;24.92;;;13.38;;
41077;SDS011;26823;42.662;23.352;2023-02-15T06:19:55;31.38;;;15.20;;
41077;SDS011;26823;42.662;23.352;2023-02-15T06:22:23;27.75;;;14.45;;
41077;SDS011;26823;42.662;23.352;2023-02-15T06:24:48;27.73;;;12.90;;
41077;SDS011;26823;42.662;23.352;2023-02-15T06:27:14;28.77;;;13.95;;
41077;SDS011;26823;42.662;23.352;2023-02-15T06:29:39;26.17;;;13.23;;
41077;SDS011;26823;42.662;23.352;2023-02-15T06:32:05;27.23;;;14.23;;
41077;SDS011;26823;42.662;23.352;2023-02-15T06:34:31;33.10;;;13.48;;
41077;SDS011;26823;42.662;23.352;2023-02-15T06:36:56;23.67;;;12.68;;
41077;SDS011;26823;42.662;23.352;2023-02-15T06:39:22;28.00;;;12.05;;
41077;SDS011;26823;42.662;23.352;2023-02-15T06:41:47;24.88;;;12.90;;
41077;SDS011;26823;42.662;23.352;2023-02-15T06:44:13;26.23;;;12.63;;
41077;SDS011;26823;42.662;23.352;2023-02-15T06:46:38;25.40;;;11.85;;
41077;SDS011;26823;42.662;23.352;2023-02-15T06:49:04;28.48;;;13.98;;
41077;SDS011;26823;42.662;23.352;2023-02-15T06:51:29;26.48;;;12.90;;
41077;SDS011;26823;42.662;23.352;2023-02-15T06:53:55;24.00;;;11.85;;
41077;SDS011;26823;42.662;23.352;2023-02-15T06:56:20;25.15;;;12.60;;
41077;SDS011;26823;42.662;23.352;2023-02-15T06:58:45;25.30;;;11.68;;
41077;SDS011;26823;42.662;23.352;2023-02-15T07:01:11;21.40;;;11.07;;
41077;SDS011;26823;42.662;23.352;2023-02-15T07:03:37;24.90;;;12.50;;
41077;SDS011;26823;42.662;23.352;2023-02-15T07:06:03;20.38;;;10.98;;
41077;SDS011;26823;42.662;23.352;2023-02-15T07:08:33;19.98;;;11.27;;
41077;SDS011;26823;42.662;23.352;2023-02-15T07:10:59;21.98;;;12.27;;
41077;SDS011;26823;42.662;23.352;2023-02-15T07:13:43;26.48;;;13.50;;
41077;SDS011;26823;42.662;23.352;2023-02-15T07:16:09;21.83;;;12.77;;
41077;SDS011;26823;42.662;23.352;2023-02-15T07:18:35;24.00;;;11.80;;
41077;SDS011;26823;42.662;23.352;2023-02-15T07:21:00;21.67;;;11.52;;
41077;SDS011;26823;42.662;23.352;2023-02-15T07:23:26;23.98;;;12.27;;
41077;SDS011;26823;42.662;23.352;2023-02-15T07:25:59;21.23;;;12.15;;
41077;SDS011;26823;42.662;23.352;2023-02-15T07:28:25;17.15;;;10.18;;
41077;SDS011;26823;42.662;23.352;2023-02-15T07:30:51;20.85;;;10.82;;
41077;SDS011;26823;42.662;23.352;2023-02-15T07:33:16;24.90;;;12.63;;
41077;SDS011;26823;42.662;23.352;2023-02-15T07:35:48;20.38;;;10.80;;
41077;SDS011;26823;42.662;23.352;2023-02-15T07:38:14;25.42;;;11.02;;
41077;SDS011;26823;42.662;23.352;2023-02-15T07:40:40;21.38;;;11.80;;
41077;SDS011;26823;42.662;23.352;2023-02-15T07:43:05;20.17;;;11.77;;
41077;SDS011;26823;42.662;23.352;2023-02-15T07:45:30;20.23;;;11.45;;
41077;SDS011;26823;42.662;23.352;2023-02-15T07:47:56;20.20;;;11.30;;
41077;SDS011;26823;42.662;23.352;2023-02-15T07:50:21;19.95;;;11.70;;
41077;SDS011;26823;42.662;23.352;2023-02-15T07:52:47;17.08;;;10.50;;
41077;SDS011;26823;42.662;23.352;2023-02-15T07:55:12;19.13;;;11.43;;
41077;SDS011;26823;42.662;23.352;2023-02-15T07:57:42;22.73;;;11.52;;
41077;SDS011;26823;42.662;23.352;2023-02-15T08:00:12;20.05;;;11.65;;
41077;SDS011;26823;42.662;23.352;2023-02-15T08:02:39;16.10;;;11.32;;
41077;SDS011;26823;42.662;23.352;2023-02-15T08:05:04;19.58;;;11.63;;
41077;SDS011;26823;42.662;23.352;2023-02-15T08:07:31;19.75;;;11.88;;
41077;SDS011;26823;42.662;23.352;2023-02-15T08:09:56;22.40;;;11.10;;
41077;SDS011;26823;42.662;23.352;2023-02-15T08:12:21;22.67;;;12.20;;
41077;SDS011;26823;42.662;23.352;2023-02-15T08:14:47;20.52;;;11.27;;
41077;SDS011;26823;42.662;23.352;2023-02-15T08:17:12;17.45;;;9.98;;
41077;SDS011;26823;42.662;23.352;2023-02-15T08:19:40;17.42;;;10.38;;
41077;SDS011;26823;42.662;23.352;2023-02-15T08:22:06;22.75;;;10.57;;
41077;SDS011;26823;42.662;23.352;2023-02-15T08:24:36;19.10;;;10.73;;
41077;SDS011;26823;42.662;23.352;2023-02-15T08:27:02;17.05;;;10.55;;
41077;SDS011;26823;42.662;23.352;2023-02-15T08:29:29;23.92;;;11.63;;
41077;SDS011;26823;42.662;23.352;2023-02-15T08:31:57;19.02;;;11.40;;
41077;SDS011;26823;42.662;23.352;2023-02-15T08:34:29;18.92;;;10.50;;
41077;SDS011;26823;42.662;23.352;2023-02-15T08:36:56;22.92;;;11.63;;
41077;SDS011;26823;42.662;23.352;2023-02-15T08:39:21;22.30;;;11.27;;
41077;SDS011;26823;42.662;23.352;2023-02-15T08:41:47;19.63;;;11.43;;
41077;SDS011;26823;42.662;23.352;2023-02-15T08:44:14;21.58;;;11.98;;
41077;SDS011;26823;42.662;23.352;2023-02-15T08:46:44;24.90;;;11.07;;
41077;SDS011;26823;42.662;23.352;2023-02-15T08:49:12;17.65;;;11.00;;
41077;SDS011;26823;42.662;23.352;2023-02-15T08:51:40;19.05;;;10.50;;
41077;SDS011;26823;42.662;23.352;2023-02-15T08:54:07;18.38;;;10.57;;
41077;SDS011;26823;42.662;23.352;2023-02-15T08:56:35;21.63;;;10.82;;
41077;SDS011;26823;42.662;23.352;2023-02-15T08:59:02;20.10;;;11.13;;
41077;SDS011;26823;42.662;23.352;2023-02-15T09:01:30;18.85;;;9.60;;
41077;SDS011;26823;42.662;23.352;2023-02-15T09:03:58;20.13;;;10.23;;
41077;SDS011;26823;42.662;23.352;2023-02-15T09:06:35;16.02;;;8.73;;
41077;SDS011;26823;42.662;23.352;2023-02-15T09:09:02;21.05;;;9.43;;
41077;SDS011;26823;42.662;23.352;2023-02-15T09:11:29;17.98;;;9.20;;
41077;SDS011;26823;42.662;23.352;2023-02-15T09:13:57;19.85;;;10.13;;
41077;SDS011;26823;42.662;23.352;2023-02-15T09:16:27;16.27;;;9.77;;
41077;SDS011;26823;42.662;23.352;2023-02-15T09:18:54;19.42;;;10.25;;
41077;SDS011;26823;42.662;23.352;2023-02-15T09:21:22;16.38;;;9.65;;
41077;SDS011;26823;42.662;23.352;2023-02-15T09:23:50;20.38;;;10.02;;
41077;SDS011;26823;42.662;23.352;2023-02-15T09:26:20;17.42;;;9.82;;
41077;SDS011;26823;42.662;23.352;2023-02-15T09:32:26;20.48;;;9.57;;
41077;SDS011;26823;42.662;23.352;2023-02-15T09:34:52;18.25;;;10.10;;
41077;SDS011;26823;42.662;23.352;2023-02-15T09:37:17;18.65;;;9.90;;
41077;SDS011;26823;42.662;23.352;2023-02-15T09:39:48;19.20;;;10.32;;
41077;SDS011;26823;42.662;23.352;2023-02-15T09:57:05;16.88;;;9.13;;
41077;SDS011;26823;42.662;23.352;2023-02-15T09:59:52;17.67;;;9.40;;
41077;SDS011;26823;42.662;23.352;2023-02-15T10:11:19;17.73;;;11.00;;
41077;SDS011;26823;42.662;23.352;2023-02-15T10:27:45;19.88;;;10.90;;
41077;SDS011;26823;42.662;23.352;2023-02-15T10:30:20;18.20;;;11.00;;
41077;SDS011;26823;42.662;23.352;2023-02-15T10:32:57;17.90;;;10.35;;
41077;SDS011;26823;42.662;23.352;2023-02-15T10:45:52;22.83;;;13.02;;
41077;SDS011;26823;42.662;23.352;2023-02-15T10:59:46;20.60;;;10.98;;
41077;SDS011;26823;42.662;23.352;2023-02-15T11:07:25;17.88;;;11.93;;
41077;SDS011;26823;42.662;23.352;2023-02-15T11:12:51;18.93;;;11.77;;
41077;SDS011;26823;42.662;23.352;2023-02-15T11:15:22;16.60;;;11.38;;
41077;SDS011;26823;42.662;23.352;2023-02-15T11:17:57;15.25;;;12.13;;
41077;SDS011;26823;42.662;23.352;2023-02-15T11:20:35;17.40;;;13.20;;
41077;SDS011;26823;42.662;23.352;2023-02-15T11:23:07;15.23;;;11.48;;
41077;SDS011;26823;42.662;23.352;2023-02-15T11:25:47;18.27;;;11.70;;
41077;SDS011;26823;42.662;23.352;2023-02-15T11:28:41;22.30;;;13.07;;
41077;SDS011;26823;42.662;23.352;2023-02-15T11:31:15;15.77;;;11.38;;
41077;SDS011;26823;42.662;23.352;2023-02-15T11:33:44;17.23;;;12.70;;
41077;SDS011;26823;42.662;23.352;2023-02-15T11:36:46;19.73;;;12.80;;
41077;SDS011;26823;42.662;23.352;2023-02-15T11:39:13;16.10;;;11.77;;
41077;SDS011;26823;42.662;23.352;2023-02-15T11:41:46;18.33;;;11.70;;
41077;SDS011;26823;42.662;23.352;2023-02-15T11:44:27;16.13;;;11.40;;
41077;SDS011;26823;42.662;23.352;2023-02-15T11:46:57;18.50;;;12.02;;
41077;SDS011;26823;42.662;23.352;2023-02-15T11:49:30;18.08;;;11.70;;
41077;SDS011;26823;42.662;23.352;2023-02-15T11:52:05;16.00;;;12.15;;
41077;SDS011;26823;42.662;23.352;2023-02-15T11:54:35;22.98;;;13.02;;
41077;SDS011;26823;42.662;23.352;2023-02-15T11:57:15;17.02;;;12.20;;
41077;SDS011;26823;42.662;23.352;2023-02-15T12:00:10;20.13;;;12.35;;
41077;SDS011;26823;42.662;23.352;2023-02-15T12:02:43;18.02;;;12.90;;
41077;SDS011;26823;42.662;23.352;2023-02-15T12:05:13;17.58;;;12.23;;
41077;SDS011;26823;42.662;23.352;2023-02-15T12:07:46;17.27;;;12.75;;
41077;SDS011;26823;42.662;23.352;2023-02-15T12:10:36;22.67;;;13.27;;
41077;SDS011;26823;42.662;23.352;2023-02-15T12:13:11;20.27;;;12.57;;
41077;SDS011;26823;42.662;23.352;2023-02-15T12:15:45;18.15;;;12.43;;
41077;SDS011;26823;42.662;23.352;2023-02-15T12:18:41;18.15;;;12.40;;
41077;SDS011;26823;42.662;23.352;2023-02-15T12:21:10;21.77;;;12.45;;
41077;SDS011;26823;42.662;23.352;2023-02-15T12:23:58;18.50;;;12.23;;
41077;SDS011;26823;42.662;23.352;2023-02-15T12:26:37;18.45;;;12.93;;
41077;SDS011;26823;42.662;23.352;2023-02-15T12:29:15;21.55;;;12.00;;
41077;SDS011;26823;42.662;23.352;2023-02-15T12:31:45;20.42;;;13.32;;
41077;SDS011;26823;42.662;23.352;2023-02-15T12:36:57;18.98;;;12.15;;
41077;SDS011;26823;42.662;23.352;2023-02-15T12:39:30;17.83;;;12.95;;
41077;SDS011;26823;42.662;23.352;2023-02-15T12:41:58;20.02;;;11.38;;
41077;SDS011;26823;42.662;23.352;2023-02-15T12:47:01;23.98;;;13.63;;
41077;SDS011;26823;42.662;23.352;2023-02-15T12:50:06;21.63;;;12.45;;
41077;SDS011;26823;42.662;23.352;2023-02-15T12:55:17;22.15;;;12.07;;
41077;SDS011;26823;42.662;23.352;2023-02-15T12:57:45;21.48;;;12.70;;
41077;SDS011;26823;42.662;23.352;2023-02-15T13:02:47;23.02;;;14.23;;
41077;SDS011;26823;42.662;23.352;2023-02-15T13:13:26;21.45;;;11.88;;
41077;SDS011;26823;42.662;23.352;2023-02-15T13:15:58;20.33;;;11.95;;
41077;SDS011;26823;42.662;23.352;2023-02-15T13:18:34;19.60;;;13.20;;
41077;SDS011;26823;42.662;23.352;2023-02-15T13:21:09;21.20;;;13.02;;
41077;SDS011;26823;42.662;23.352;2023-02-15T13:27:02;23.08;;;13.15;;
41077;SDS011;26823;42.662;23.352;2023-02-15T13:29:30;19.48;;;12.98;;
41077;SDS011;26823;42.662;23.352;2023-02-15T13:32:00;20.88;;;13.25;;
41077;SDS011;26823;42.662;23.352;2023-02-15T13:34:32;21.70;;;13.70;;
41077;SDS011;26823;42.662;23.352;2023-02-15T13:42:19;23.20;;;13.13;;
41077;SDS011;26823;42.662;23.352;2023-02-15T13:47:56;20.65;;;12.48;;
41077;SDS011;26823;42.662;23.352;2023-02-15T14:01:55;23.52;;;13.35;;
41077;SDS011;26823;42.662;23.352;2023-02-15T14:10:21;22.52;;;12.20;;
41077;SDS011;26823;42.662;23.352;2023-02-15T14:21:44;21.15;;;12.77;;
41077;SDS011;26823;42.662;23.352;2023-02-15T14:24:36;22.92;;;12.98;;
41077;SDS011;26823;42.662;23.352;2023-02-15T14:29:47;28.08;;;13.25;;
41077;SDS011;26823;42.662;23.352;2023-02-15T14:32:39;20.42;;;13.52;;
41077;SDS011;26823;42.662;23.352;2023-02-15T14:35:12;25.35;;;14.50;;
41077;SDS011;26823;42.662;23.352;2023-02-15T14:47:09;22.60;;;13.20;;
41077;SDS011;26823;42.662;23.352;2023-02-15T14:55:40;26.75;;;13.88;;
41077;SDS011;26823;42.662;23.352;2023-02-15T14:58:09;24.48;;;14.55;;
41077;SDS011;26823;42.662;23.352;2023-02-15T15:00:37;27.65;;;13.88;;
41077;SDS011;26823;42.662;23.352;2023-02-15T15:03:19;26.95;;;13.13;;
41077;SDS011;26823;42.662;23.352;2023-02-15T15:05:51;25.02;;;13.13;;
41077;SDS011;26823;42.662;23.352;2023-02-15T15:08:32;23.95;;;13.00;;
41077;SDS011;26823;42.662;23.352;2023-02-15T15:17:02;22.98;;;13.13;;
41077;SDS011;26823;42.662;23.352;2023-02-15T15:22:19;24.88;;;12.30;;
41077;SDS011;26823;42.662;23.352;2023-02-15T15:24:51;26.08;;;13.68;;
41077;SDS011;26823;42.662;23.352;2023-02-15T15:33:03;26.13;;;13.35;;
41077;SDS011;26823;42.662;23.352;2023-02-15T15:49:36;26.95;;;13.75;;
41077;SDS011;26823;42.662;23.352;2023-02-15T15:52:17;25.15;;;13.10;;
41077;SDS011;26823;42.662;23.352;2023-02-15T15:54:46;24.33;;;12.73;;
41077;SDS011;26823;42.662;23.352;2023-02-15T15:57:16;27.52;;;13.60;;
41077;SDS011;26823;42.662;23.352;2023-02-15T16:02:53;28.45;;;12.82;;
41077;SDS011;26823;42.662;23.352;2023-02-15T16:05:20;23.92;;;12.93;;
41077;SDS011;26823;42.662;23.352;2023-02-15T16:07:46;27.48;;;14.23;;
41077;SDS011;26823;42.662;23.352;2023-02-15T16:10:25;29.88;;;13.80;;
41077;SDS011;26823;42.662;23.352;2023-02-15T16:12:52;28.95;;;14.82;;
41077;SDS011;26823;42.662;23.352;2023-02-15T16:15:20;26.85;;;13.45;;
41077;SDS011;26823;42.662;23.352;2023-02-15T16:17:55;29.10;;;14.00;;
41077;SDS011;26823;42.662;23.352;2023-02-15T16:23:21;28.65;;;14.18;;
41077;SDS011;26823;42.662;23.352;2023-02-15T16:28:28;26.55;;;13.52;;
41077;SDS011;26823;42.662;23.352;2023-02-15T16:31:13;29.02;;;14.40;;
41077;SDS011;26823;42.662;23.352;2023-02-15T16:33:40;27.88;;;14.25;;
41077;SDS011;26823;42.662;23.352;2023-02-15T16:36:19;31.67;;;15.45;;
41077;SDS011;26823;42.662;23.352;2023-02-15T16:38:57;29.30;;;15.38;;
41077;SDS011;26823;42.662;23.352;2023-02-15T16:41:34;31.15;;;15.60;;
41077;SDS011;26823;42.662;23.352;2023-02-15T16:44:06;26.92;;;14.88;;
41077;SDS011;26823;42.662;23.352;2023-02-15T16:46:42;27.60;;;14.73;;
41077;SDS011;26823;42.662;23.352;2023-02-15T16:49:15;31.33;;;15.27;;
41077;SDS011;26823;42.662;23.352;2023-02-15T16:51:45;29.48;;;14.52;;
41077;SDS011;26823;42.662;23.352;2023-02-15T16:54:20;27.33;;;14.20;;
41077;SDS011;26823;42.662;23.352;2023-02-15T16:56:48;28.10;;;15.30;;
41077;SDS011;26823;42.662;23.352;2023-02-15T16:59:25;27.65;;;14.57;;
41077;SDS011;26823;42.662;23.352;2023-02-15T17:04:26;28.25;;;14.57;;
41077;SDS011;26823;42.662;23.352;2023-02-15T17:09:26;28.88;;;14.35;;
41077;SDS011;26823;42.662;23.352;2023-02-15T17:11:51;28.95;;;15.35;;
41077;SDS011;26823;42.662;23.352;2023-02-15T17:14:20;27.58;;;13.50;;
41077;SDS011;26823;42.662;23.352;2023-02-15T17:16:52;29.40;;;15.75;;
41077;SDS011;26823;42.662;23.352;2023-02-15T17:19:32;32.88;;;13.73;;
41077;SDS011;26823;42.662;23.352;2023-02-15T17:22:05;29.42;;;14.95;;
41077;SDS011;26823;42.662;23.352;2023-02-15T17:24:35;30.05;;;14.80;;
41077;SDS011;26823;42.662;23.352;2023-02-15T17:27:05;32.92;;;15.40;;
41077;SDS011;26823;42.662;23.352;2023-02-15T17:29:45;28.13;;;15.10;;
41077;SDS011;26823;42.662;23.352;2023-02-15T17:32:19;30.63;;;16.77;;
41077;SDS011;26823;42.662;23.352;2023-02-15T17:37:43;32.28;;;15.82;;
41077;SDS011;26823;42.662;23.352;2023-02-15T17:40:30;29.40;;;15.52;;
41077;SDS011;26823;42.662;23.352;2023-02-15T17:43:00;30.52;;;15.05;;
41077;SDS011;26823;42.662;23.352;2023-02-15T17:45:29;29.08;;;16.15;;
41077;SDS011;26823;42.662;23.352;2023-02-15T17:48:02;33.15;;;15.95;;
41077;SDS011;26823;42.662;23.352;2023-02-15T17:50:29;25.17;;;15.48;;
41077;SDS011;26823;42.662;23.352;2023-02-15T17:52:55;32.00;;;16.17;;
41077;SDS011;26823;42.662;23.352;2023-02-15T17:55:23;30.08;;;15.02;;
41077;SDS011;26823;42.662;23.352;2023-02-15T17:58:09;29.77;;;15.50;;
41077;SDS011;26823;42.662;23.352;2023-02-15T18:00:38;31.27;;;15.07;;
41077;SDS011;26823;42.662;23.352;2023-02-15T18:03:25;29.48;;;15.10;;
41077;SDS011;26823;42.662;23.352;2023-02-15T18:09:17;31.48;;;14.10;;
41077;SDS011;26823;42.662;23.352;2023-02-15T18:12:05;27.45;;;15.23;;
41077;SDS011;26823;42.662;23.352;2023-02-15T18:14:51;28.02;;;14.27;;
41077;SDS011;26823;42.662;23.352;2023-02-15T18:17:26;32.53;;;16.10;;
41077;SDS011;26823;42.662;23.352;2023-02-15T18:19:54;26.70;;;14.75;;
41077;SDS011;26823;42.662;23.352;2023-02-15T18:22:20;30.35;;;14.27;;